Aérodrome :
LOGIN :

S'inscrire | Disclaimer

   EN    FR    IT 

 










Légende :    VFR   VFR Marginal   IFR   IFR Intensif   IFR Très Intensif
Visi : 
Plafond : 
>= 8 km
>= 3000ft
5 à 8 km
1000 à 3000 ft
1500m à 5 km
500 à 1000 ft
800 à 1500m
200 à 500 ft
< 800m
< 200 ft
Symboles :   Orages  Brouillard  Fortes neiges  Fortes précipitations  Vent > 20 kt
SIGMETs :   Divers  Orages  Givrage  Turbulence  Onde Orograph.  Cendres Volcan.






- Altitude de l'aérodrome : 37 ft
- Code IATA : OLB


LIEO - Olbia Costa Smeralda

DERNIER METAR :
  • 042050Z 22010KT 9999 FEW020 SCT040 22/16 Q1001

METARs EXPIRÉS :
  • 042020Z 24010KT 9999 FEW020 SCT040 22/16 Q1001
  • 041950Z 24010KT 9999 FEW030 23/16 Q1000
  • 041920Z 23012KT 9999 FEW030 23/16 Q1000
  • 041850Z 23014KT 9999 FEW025 24/16 Q1000
  • 041820Z 22005KT 130V270 9999 FEW030 23/16 Q1000
  • 041750Z 08007KT 050V120 9999 FEW020 22/17 Q1000

TAF TAF LIEO
Valide du 04 à 18h jusqu'au 05 à 18h UTC


041700Z 0418/0518 25014KT 9999 SCT030
TEMPO 0418/0506 4000 TSRA
BECMG 0506/0508 25020G30KT



MET'MAP, la Météo Aéronautique d'un coup d'oeil ! - Copyright ORBIFLY Décembre 2007 - Disclaimer

ORBIFLY MET'MAP TEAM :

Programmation & Développement : Alexandra Zaïnal
Sur une idée originale de : Baudouin d'Aumeries
Assistance à la programmation : Marc-Olivier Méhu
Soutien technique & logistique : Manuel Goepfert

Contact : metmap@orbifly.com




SOURCES & CREDITS :

   NOAA